PWSweather.com
Personal Weather Stations
Station Observations
WESTON01
WestonSuperMareGB BS22 8RT

WestonSuperMareGB BS22 8RT

Lat: 51.351508, Lon: -2.933373

Elevation: 15

Station Type: Fine Offset WH1080

http://www.westonweather.co.uk

High Low Average
Temperature 67.9°F19.9°C 55.5°F13.1°C 61.9°F16.6°C
Dew Point 60.8°F16.0°C 44.8°F7.1°C 53.7°F12.1°C
Winds 18.0 mph 29.0 kmh 2.7 mph 4.3 kmh 8.0 mph W12.9 kmh W
Wind Gusts 29.8 mph48.0 kmh 4.2 mph6.8 kmh 13.0 mph20.9 kmh
Humidity 92% 61% 75%
Pressure 29.93 in1013.5 mb 29.87 in1011.5 mb -
Precipitation 0.13 in3.3 mm - -
Hour Temp Dew Point Humidity Winds Wind Gusts Pressure Precip Precip Rate Daily Precip Total
12:00 AM 64.7°F18.2°C 60.1°F15.6°C 85% 5.6 mph SSW9.0 kmh SSW 8.0 mph12.9 kmh 29.93 in1013.5 mb 0.00 in0.0 mm 0.00 in0.0 mm 0.00 in0.0 mm
12:05 AM 64.7°F18.2°C 60.1°F15.6°C 85% 5.1 mph SSW8.2 kmh SSW 7.4 mph11.9 kmh 29.93 in1013.5 mb 0.00 in0.0 mm 0.00 in0.0 mm 0.00 in0.0 mm
12:10 AM 64.7°F18.2°C 60.1°F15.6°C 85% 4.4 mph SSW7.1 kmh SSW 7.4 mph11.9 kmh 29.93 in1013.5 mb 0.00 in0.0 mm 0.00 in0.0 mm 0.00 in0.0 mm
12:15 AM 64.7°F18.2°C 60.1°F15.6°C 85% 3.8 mph SSW6.1 kmh SSW 5.7 mph9.2 kmh 29.93 in1013.5 mb 0.00 in0.0 mm 0.00 in0.0 mm 0.00 in0.0 mm
12:20 AM 64.5°F18.1°C 60.2°F15.7°C 86% 4.5 mph SSW7.2 kmh SSW 8.6 mph13.8 kmh 29.93 in1013.5 mb 0.00 in0.0 mm 0.00 in0.0 mm 0.00 in0.0 mm
12:25 AM 64.5°F18.1°C 60.2°F15.7°C 86% 4.8 mph SSW7.7 kmh SSW 10.7 mph17.2 kmh 29.90 in1012.5 mb 0.00 in0.0 mm 0.00 in0.0 mm 0.00 in0.0 mm
12:30 AM 64.5°F18.1°C 60.2°F15.7°C 86% 5.0 mph SSW8.0 kmh SSW 10.7 mph17.2 kmh 29.90 in1012.5 mb 0.00 in0.0 mm 0.00 in0.0 mm 0.00 in0.0 mm
12:35 AM 64.3°F17.9°C 60.0°F15.6°C 86% 5.9 mph SSW9.5 kmh SSW 8.3 mph13.4 kmh 29.90 in1012.5 mb 0.00 in0.0 mm 0.00 in0.0 mm 0.00 in0.0 mm
12:40 AM 64.3°F17.9°C 60.0°F15.6°C 86% 7.1 mph S11.4 kmh S 9.8 mph15.8 kmh 29.90 in1012.5 mb 0.00 in0.0 mm 0.00 in0.0 mm 0.00 in0.0 mm
12:45 AM 64.3°F17.9°C 60.0°F15.6°C 86% 7.8 mph S12.6 kmh S 11.6 mph18.7 kmh 29.90 in1012.5 mb 0.00 in0.0 mm 0.00 in0.0 mm 0.00 in0.0 mm
12:50 AM 64.3°F17.9°C 60.4°F15.8°C 87% 7.0 mph S11.3 kmh S 11.6 mph18.7 kmh 29.90 in1012.5 mb 0.00 in0.0 mm 0.00 in0.0 mm 0.00 in0.0 mm
12:55 AM 64.3°F17.9°C 60.4°F15.8°C 87% 7.0 mph S11.3 kmh S 10.4 mph16.7 kmh 29.90 in1012.5 mb 0.00 in0.0 mm 0.00 in0.0 mm 0.00 in0.0 mm
01:00 AM 64.3°F17.9°C 60.4°F15.8°C 87% 7.5 mph SSW12.1 kmh SSW 10.4 mph16.7 kmh 29.90 in1012.5 mb 0.00 in0.0 mm 0.00 in0.0 mm 0.00 in0.0 mm
01:05 AM 64.3°F17.9°C 60.4°F15.8°C 87% 6.2 mph SSW10.0 kmh SSW 8.3 mph13.4 kmh 29.90 in1012.5 mb 0.00 in0.0 mm 0.00 in0.0 mm 0.00 in0.0 mm
01:10 AM 64.3°F17.9°C 60.4°F15.8°C 87% 5.3 mph SSW8.5 kmh SSW 7.1 mph11.4 kmh 29.90 in1012.5 mb 0.00 in0.0 mm 0.00 in0.0 mm 0.00 in0.0 mm
01:15 AM 64.3°F17.9°C 60.4°F15.8°C 87% 4.7 mph SSW7.6 kmh SSW 7.1 mph11.4 kmh 29.90 in1012.5 mb 0.00 in0.0 mm 0.00 in0.0 mm 0.00 in0.0 mm
01:20 AM 64.3°F17.9°C 60.4°F15.8°C 87% 4.8 mph SSW7.7 kmh SSW 8.3 mph13.4 kmh 29.90 in1012.5 mb 0.00 in0.0 mm 0.00 in0.0 mm 0.00 in0.0 mm
01:25 AM 64.3°F17.9°C 60.7°F15.9°C 88% 4.8 mph SSW7.7 kmh SSW 8.3 mph13.4 kmh 29.90 in1012.5 mb 0.00 in0.0 mm 0.00 in0.0 mm 0.00 in0.0 mm
01:30 AM 64.3°F17.9°C 60.7°F15.9°C 88% 4.2 mph SW6.8 kmh SW 8.0 mph12.9 kmh 29.90 in1012.5 mb 0.00 in0.0 mm 0.00 in0.0 mm 0.00 in0.0 mm
01:35 AM 64.3°F17.9°C 60.7°F15.9°C 88% 4.9 mph W7.9 kmh W 7.7 mph12.4 kmh 29.90 in1012.5 mb 0.00 in0.0 mm 0.00 in0.0 mm 0.00 in0.0 mm
01:40 AM 64.3°F17.9°C 60.7°F15.9°C 88% 5.7 mph W9.2 kmh W 8.0 mph12.9 kmh 29.90 in1012.5 mb 0.00 in0.0 mm 0.00 in0.0 mm 0.00 in0.0 mm
01:45 AM 64.3°F17.9°C 60.7°F15.9°C 88% 4.9 mph W7.9 kmh W 8.0 mph12.9 kmh 29.90 in1012.5 mb 0.00 in0.0 mm 0.00 in0.0 mm 0.00 in0.0 mm
01:50 AM 64.1°F17.8°C 60.8°F16.0°C 89% 5.5 mph W8.9 kmh W 12.5 mph20.1 kmh 29.90 in1012.5 mb 0.00 in0.0 mm 0.00 in0.0 mm 0.00 in0.0 mm
01:55 AM 64.1°F17.8°C 60.8°F16.0°C 89% 7.6 mph W12.2 kmh W 13.1 mph21.1 kmh 29.90 in1012.5 mb 0.00 in0.0 mm 0.00 in0.0 mm 0.00 in0.0 mm
02:00 AM 64.0°F17.8°C 60.6°F15.9°C 89% 8.6 mph W13.8 kmh W 14.0 mph22.5 kmh 29.90 in1012.5 mb 0.00 in0.0 mm 0.00 in0.0 mm 0.00 in0.0 mm
02:05 AM 64.0°F17.8°C 60.6°F15.9°C 89% 7.6 mph W12.2 kmh W 14.0 mph22.5 kmh 29.90 in1012.5 mb 0.04 in1.0 mm 0.48 in12.2 mm 0.04 in1.0 mm
02:10 AM 64.0°F17.8°C 60.6°F15.9°C 89% 6.2 mph W10.0 kmh W 8.0 mph12.9 kmh 29.90 in1012.5 mb 0.04 in1.0 mm 0.00 in0.0 mm 0.04 in1.0 mm
02:15 AM 63.8°F17.7°C 60.8°F16.0°C 90% 5.6 mph WSW9.0 kmh WSW 8.3 mph13.4 kmh 29.90 in1012.5 mb 0.04 in1.0 mm 0.00 in0.0 mm 0.04 in1.0 mm
02:20 AM 63.6°F17.6°C 60.6°F15.9°C 90% 6.2 mph WSW10.0 kmh WSW 10.4 mph16.7 kmh 29.90 in1012.5 mb 0.04 in1.0 mm 0.00 in0.0 mm 0.04 in1.0 mm
02:25 AM 63.4°F17.4°C 60.4°F15.8°C 90% 7.3 mph W11.7 kmh W 11.3 mph18.2 kmh 29.90 in1012.5 mb 0.04 in1.0 mm 0.00 in0.0 mm 0.04 in1.0 mm
02:30 AM 63.4°F17.4°C 60.4°F15.8°C 90% 5.9 mph WNW9.5 kmh WNW 11.3 mph18.2 kmh 29.90 in1012.5 mb 0.04 in1.0 mm 0.00 in0.0 mm 0.04 in1.0 mm
02:35 AM 63.2°F17.3°C 60.2°F15.7°C 90% 5.4 mph W8.7 kmh W 9.8 mph15.8 kmh 29.90 in1012.5 mb 0.04 in1.0 mm 0.00 in0.0 mm 0.04 in1.0 mm
02:40 AM 63.2°F17.3°C 60.2°F15.7°C 90% 7.1 mph W11.4 kmh W 10.4 mph16.7 kmh 29.90 in1012.5 mb 0.04 in1.0 mm 0.00 in0.0 mm 0.04 in1.0 mm
02:45 AM 63.2°F17.3°C 60.2°F15.7°C 90% 8.4 mph W13.5 kmh W 10.7 mph17.2 kmh 29.90 in1012.5 mb 0.04 in1.0 mm 0.00 in0.0 mm 0.04 in1.0 mm
02:50 AM 63.2°F17.3°C 60.6°F15.9°C 91% 7.4 mph W11.9 kmh W 10.7 mph17.2 kmh 29.90 in1012.5 mb 0.04 in1.0 mm 0.00 in0.0 mm 0.04 in1.0 mm
02:55 AM 63.2°F17.3°C 60.6°F15.9°C 91% 6.6 mph W10.6 kmh W 14.0 mph22.5 kmh 29.90 in1012.5 mb 0.04 in1.0 mm 0.00 in0.0 mm 0.04 in1.0 mm
03:00 AM 63.2°F17.3°C 60.6°F15.9°C 91% 7.0 mph W11.3 kmh W 14.0 mph22.5 kmh 29.90 in1012.5 mb 0.04 in1.0 mm 0.00 in0.0 mm 0.04 in1.0 mm
03:05 AM 63.0°F17.2°C 60.4°F15.8°C 91% 5.5 mph W8.9 kmh W 7.7 mph12.4 kmh 29.90 in1012.5 mb 0.00 in0.0 mm 0.00 in0.0 mm 0.04 in1.0 mm
03:10 AM 63.0°F17.2°C 60.4°F15.8°C 91% 5.8 mph W9.3 kmh W 10.7 mph17.2 kmh 29.87 in1011.5 mb 0.00 in0.0 mm 0.00 in0.0 mm 0.04 in1.0 mm
03:15 AM 63.0°F17.2°C 60.4°F15.8°C 91% 6.7 mph W10.8 kmh W 10.7 mph17.2 kmh 29.87 in1011.5 mb 0.00 in0.0 mm 0.00 in0.0 mm 0.04 in1.0 mm
03:20 AM 62.9°F17.2°C 60.2°F15.7°C 91% 5.8 mph W9.3 kmh W 10.1 mph16.3 kmh 29.87 in1011.5 mb 0.00 in0.0 mm 0.00 in0.0 mm 0.04 in1.0 mm
03:25 AM 62.9°F17.2°C 60.2°F15.7°C 91% 5.4 mph W8.7 kmh W 8.3 mph13.4 kmh 29.87 in1011.5 mb 0.00 in0.0 mm 0.00 in0.0 mm 0.04 in1.0 mm
03:30 AM 62.7°F17.1°C 60.0°F15.6°C 91% 7.0 mph WNW11.3 kmh WNW 10.1 mph16.3 kmh 29.87 in1011.5 mb 0.04 in1.0 mm 0.48 in12.2 mm 0.08 in2.0 mm
03:35 AM 62.5°F16.9°C 59.8°F15.4°C 91% 7.4 mph W11.9 kmh W 11.3 mph18.2 kmh 29.87 in1011.5 mb 0.04 in1.0 mm 0.00 in0.0 mm 0.08 in2.0 mm
03:40 AM 62.3°F16.8°C 59.7°F15.4°C 91% 6.3 mph WSW10.1 kmh WSW 11.3 mph18.2 kmh 29.87 in1011.5 mb 0.04 in1.0 mm 0.00 in0.0 mm 0.08 in2.0 mm
03:45 AM 62.2°F16.8°C 59.5°F15.3°C 91% 6.3 mph W10.1 kmh W 9.5 mph15.3 kmh 29.87 in1011.5 mb 0.04 in1.0 mm 0.00 in0.0 mm 0.08 in2.0 mm
03:50 AM 62.0°F16.7°C 59.3°F15.2°C 91% 8.6 mph W13.8 kmh W 14.0 mph22.5 kmh 29.87 in1011.5 mb 0.09 in2.3 mm 0.60 in15.2 mm 0.13 in3.3 mm
03:55 AM 61.8°F16.6°C 59.1°F15.1°C 91% 8.9 mph W14.3 kmh W 14.0 mph22.5 kmh 29.87 in1011.5 mb 0.09 in2.3 mm 0.00 in0.0 mm 0.13 in3.3 mm
04:00 AM 61.6°F16.4°C 59.0°F15.0°C 91% 6.9 mph W11.1 kmh W 10.1 mph16.3 kmh 29.87 in1011.5 mb 0.09 in2.3 mm 0.00 in0.0 mm 0.13 in3.3 mm
04:05 AM 61.4°F16.3°C 59.1°F15.1°C 92% 7.3 mph W11.7 kmh W 11.6 mph18.7 kmh 29.87 in1011.5 mb 0.09 in2.3 mm 0.00 in0.0 mm 0.13 in3.3 mm
04:10 AM 61.3°F16.3°C 58.9°F14.9°C 92% 8.5 mph W13.7 kmh W 13.1 mph21.1 kmh 29.87 in1011.5 mb 0.09 in2.3 mm 0.00 in0.0 mm 0.13 in3.3 mm
04:15 AM 61.1°F16.2°C 58.7°F14.8°C 92% 8.1 mph W13.0 kmh W 13.1 mph21.1 kmh 29.87 in1011.5 mb 0.09 in2.3 mm 0.00 in0.0 mm 0.13 in3.3 mm
04:20 AM 61.1°F16.2°C 58.7°F14.8°C 92% 7.7 mph W12.4 kmh W 10.4 mph16.7 kmh 29.87 in1011.5 mb 0.09 in2.3 mm 0.00 in0.0 mm 0.13 in3.3 mm
04:25 AM 60.9°F16.1°C 58.5°F14.7°C 92% 7.0 mph W11.3 kmh W 8.6 mph13.8 kmh 29.87 in1011.5 mb 0.09 in2.3 mm 0.00 in0.0 mm 0.13 in3.3 mm
04:35 AM 60.7°F15.9°C 58.4°F14.7°C 92% 6.2 mph W10.0 kmh W 10.0 mph16.1 kmh 29.87 in1011.5 mb 0.05 in1.3 mm 0.00 in0.0 mm 0.13 in3.3 mm
04:40 AM 60.5°F15.8°C 58.2°F14.6°C 92% 7.9 mph W12.7 kmh W 13.4 mph21.6 kmh 29.87 in1011.5 mb 0.05 in1.3 mm 0.00 in0.0 mm 0.13 in3.3 mm
04:45 AM 60.5°F15.8°C 58.2°F14.6°C 92% 8.3 mph W13.4 kmh W 13.4 mph21.6 kmh 29.87 in1011.5 mb 0.05 in1.3 mm 0.00 in0.0 mm 0.13 in3.3 mm
04:50 AM 60.5°F15.8°C 58.2°F14.6°C 92% 8.1 mph W13.0 kmh W 14.0 mph22.5 kmh 29.87 in1011.5 mb 0.00 in0.0 mm 0.00 in0.0 mm 0.13 in3.3 mm
04:55 AM 60.3°F15.7°C 58.0°F14.4°C 92% 9.5 mph WNW15.3 kmh WNW 15.8 mph25.4 kmh 29.87 in1011.5 mb 0.00 in0.0 mm 0.00 in0.0 mm 0.13 in3.3 mm
05:00 AM 60.3°F15.7°C 58.0°F14.4°C 92% 8.4 mph WNW13.5 kmh WNW 15.8 mph25.4 kmh 29.87 in1011.5 mb 0.00 in0.0 mm 0.00 in0.0 mm 0.13 in3.3 mm
05:05 AM 60.3°F15.7°C 58.0°F14.4°C 92% 8.2 mph WNW13.2 kmh WNW 16.7 mph26.9 kmh 29.87 in1011.5 mb 0.00 in0.0 mm 0.00 in0.0 mm 0.13 in3.3 mm
05:10 AM 60.3°F15.7°C 58.0°F14.4°C 92% 8.1 mph WNW13.0 kmh WNW 16.7 mph26.9 kmh 29.87 in1011.5 mb 0.00 in0.0 mm 0.00 in0.0 mm 0.13 in3.3 mm
05:15 AM 60.2°F15.7°C 57.8°F14.3°C 92% 7.0 mph WNW11.3 kmh WNW 9.2 mph14.8 kmh 29.87 in1011.5 mb 0.00 in0.0 mm 0.00 in0.0 mm 0.13 in3.3 mm
05:20 AM 60.3°F15.7°C 58.0°F14.4°C 92% 8.1 mph WNW13.0 kmh WNW 9.2 mph14.8 kmh 29.87 in1011.5 mb 0.00 in0.0 mm 0.00 in0.0 mm 0.13 in3.3 mm
05:25 AM 60.3°F15.7°C 58.0°F14.4°C 92% 7.1 mph WNW11.4 kmh WNW 8.6 mph13.8 kmh 29.87 in1011.5 mb 0.00 in0.0 mm 0.00 in0.0 mm 0.13 in3.3 mm
05:30 AM 60.3°F15.7°C 58.0°F14.4°C 92% 5.9 mph WNW9.5 kmh WNW 7.7 mph12.4 kmh 29.87 in1011.5 mb 0.00 in0.0 mm 0.00 in0.0 mm 0.13 in3.3 mm
05:35 AM 60.3°F15.7°C 58.0°F14.4°C 92% 5.2 mph WNW8.4 kmh WNW 7.4 mph11.9 kmh 29.87 in1011.5 mb 0.00 in0.0 mm 0.00 in0.0 mm 0.13 in3.3 mm
05:40 AM 60.2°F15.7°C 57.8°F14.3°C 92% 3.5 mph NW5.6 kmh NW 7.4 mph11.9 kmh 29.87 in1011.5 mb 0.00 in0.0 mm 0.00 in0.0 mm 0.13 in3.3 mm
05:45 AM 60.2°F15.7°C 57.8°F14.3°C 92% 3.2 mph NW5.1 kmh NW 7.4 mph11.9 kmh 29.87 in1011.5 mb 0.00 in0.0 mm 0.00 in0.0 mm 0.13 in3.3 mm
05:50 AM 60.0°F15.6°C 57.7°F14.3°C 92% 3.6 mph NW5.8 kmh NW 7.4 mph11.9 kmh 29.87 in1011.5 mb 0.00 in0.0 mm 0.00 in0.0 mm 0.13 in3.3 mm
05:55 AM 60.0°F15.6°C 57.7°F14.3°C 92% 2.9 mph NW4.7 kmh NW 4.2 mph6.8 kmh 29.87 in1011.5 mb 0.00 in0.0 mm 0.00 in0.0 mm 0.13 in3.3 mm
06:00 AM 60.0°F15.6°C 57.7°F14.3°C 92% 3.1 mph NW5.0 kmh NW 5.4 mph8.7 kmh 29.87 in1011.5 mb 0.00 in0.0 mm 0.00 in0.0 mm 0.13 in3.3 mm
06:05 AM 59.8°F15.4°C 57.5°F14.2°C 92% 3.8 mph NW6.1 kmh NW 5.4 mph8.7 kmh 29.87 in1011.5 mb 0.00 in0.0 mm 0.00 in0.0 mm 0.13 in3.3 mm
06:10 AM 60.0°F15.6°C 57.7°F14.3°C 92% 3.4 mph NW5.5 kmh NW 5.4 mph8.7 kmh 29.90 in1012.5 mb 0.00 in0.0 mm 0.00 in0.0 mm 0.13 in3.3 mm
06:15 AM 60.0°F15.6°C 57.7°F14.3°C 92% 3.7 mph NW6.0 kmh NW 7.1 mph11.4 kmh 29.90 in1012.5 mb 0.00 in0.0 mm 0.00 in0.0 mm 0.13 in3.3 mm
06:20 AM 60.0°F15.6°C 57.7°F14.3°C 92% 4.3 mph NW6.9 kmh NW 8.6 mph13.8 kmh 29.90 in1012.5 mb 0.00 in0.0 mm 0.00 in0.0 mm 0.13 in3.3 mm
06:25 AM 59.8°F15.4°C 57.2°F14.0°C 91% 5.7 mph NW9.2 kmh NW 8.6 mph13.8 kmh 29.90 in1012.5 mb 0.00 in0.0 mm 0.00 in0.0 mm 0.13 in3.3 mm
06:30 AM 59.8°F15.4°C 57.2°F14.0°C 91% 6.9 mph NW11.1 kmh NW 8.6 mph13.8 kmh 29.90 in1012.5 mb 0.00 in0.0 mm 0.00 in0.0 mm 0.13 in3.3 mm
06:35 AM 59.8°F15.4°C 57.2°F14.0°C 91% 6.1 mph NNW9.8 kmh NNW 8.3 mph13.4 kmh 29.90 in1012.5 mb 0.00 in0.0 mm 0.00 in0.0 mm 0.13 in3.3 mm
06:40 AM 59.6°F15.3°C 56.7°F13.7°C 90% 6.8 mph NNW10.9 kmh NNW 9.8 mph15.8 kmh 29.90 in1012.5 mb 0.00 in0.0 mm 0.00 in0.0 mm 0.13 in3.3 mm
06:45 AM 59.3°F15.2°C 56.3°F13.5°C 90% 7.7 mph NW12.4 kmh NW 10.7 mph17.2 kmh 29.90 in1012.5 mb 0.00 in0.0 mm 0.00 in0.0 mm 0.13 in3.3 mm
06:50 AM 59.3°F15.2°C 56.0°F13.3°C 89% 6.7 mph NW10.8 kmh NW 10.7 mph17.2 kmh 29.90 in1012.5 mb 0.00 in0.0 mm 0.00 in0.0 mm 0.13 in3.3 mm
06:55 AM 59.1°F15.1°C 55.5°F13.1°C 88% 5.6 mph NNW9.0 kmh NNW 7.4 mph11.9 kmh 29.90 in1012.5 mb 0.00 in0.0 mm 0.00 in0.0 mm 0.13 in3.3 mm
07:00 AM 58.9°F14.9°C 55.4°F13.0°C 88% 5.3 mph N8.5 kmh N 9.8 mph15.8 kmh 29.90 in1012.5 mb 0.00 in0.0 mm 0.00 in0.0 mm 0.13 in3.3 mm
07:05 AM 58.9°F14.9°C 55.4°F13.0°C 88% 5.6 mph NW9.0 kmh NW 9.8 mph15.8 kmh 29.90 in1012.5 mb 0.00 in0.0 mm 0.00 in0.0 mm 0.13 in3.3 mm
07:10 AM 59.3°F15.2°C 55.7°F13.2°C 88% 5.2 mph NW8.4 kmh NW 7.4 mph11.9 kmh 29.90 in1012.5 mb 0.00 in0.0 mm 0.00 in0.0 mm 0.13 in3.3 mm
07:15 AM 59.5°F15.3°C 55.9°F13.3°C 88% 4.2 mph NNW6.8 kmh NNW 5.7 mph9.2 kmh 29.90 in1012.5 mb 0.00 in0.0 mm 0.00 in0.0 mm 0.13 in3.3 mm
07:20 AM 59.5°F15.3°C 55.6°F13.1°C 87% 4.0 mph NNW6.4 kmh NNW 5.7 mph9.2 kmh 29.90 in1012.5 mb 0.00 in0.0 mm 0.00 in0.0 mm 0.13 in3.3 mm
07:25 AM 59.6°F15.3°C 55.4°F13.0°C 86% 3.7 mph NNW6.0 kmh NNW 7.7 mph12.4 kmh 29.90 in1012.5 mb 0.00 in0.0 mm 0.00 in0.0 mm 0.13 in3.3 mm
07:30 AM 60.0°F15.6°C 55.5°F13.1°C 85% 3.1 mph NW5.0 kmh NW 7.7 mph12.4 kmh 29.90 in1012.5 mb 0.00 in0.0 mm 0.00 in0.0 mm 0.13 in3.3 mm
07:35 AM 60.0°F15.6°C 55.1°F12.8°C 84% 4.3 mph NNW6.9 kmh NNW 8.3 mph13.4 kmh 29.90 in1012.5 mb 0.00 in0.0 mm 0.00 in0.0 mm 0.13 in3.3 mm
07:40 AM 60.3°F15.7°C 55.5°F13.1°C 84% 4.8 mph NNW7.7 kmh NNW 8.6 mph13.8 kmh 29.90 in1012.5 mb 0.00 in0.0 mm 0.00 in0.0 mm 0.13 in3.3 mm
07:45 AM 60.5°F15.8°C 55.7°F13.2°C 84% 3.8 mph NNW6.1 kmh NNW 8.6 mph13.8 kmh 29.90 in1012.5 mb 0.00 in0.0 mm 0.00 in0.0 mm 0.13 in3.3 mm
07:50 AM 60.7°F15.9°C 55.5°F13.1°C 83% 4.0 mph NNW6.4 kmh NNW 8.6 mph13.8 kmh 29.90 in1012.5 mb 0.00 in0.0 mm 0.00 in0.0 mm 0.13 in3.3 mm
07:55 AM 61.1°F16.2°C 55.9°F13.3°C 83% 4.3 mph NNW6.9 kmh NNW 6.2 mph10.0 kmh 29.90 in1012.5 mb 0.00 in0.0 mm 0.00 in0.0 mm 0.13 in3.3 mm
08:00 AM 61.4°F16.3°C 55.5°F13.1°C 81% 5.1 mph N8.2 kmh N 7.4 mph11.9 kmh 29.90 in1012.5 mb 0.00 in0.0 mm 0.00 in0.0 mm 0.13 in3.3 mm
08:05 AM 61.6°F16.4°C 55.7°F13.2°C 81% 5.7 mph N9.2 kmh N 7.4 mph11.9 kmh 29.90 in1012.5 mb 0.00 in0.0 mm 0.00 in0.0 mm 0.13 in3.3 mm
08:10 AM 62.2°F16.8°C 55.9°F13.3°C 80% 5.6 mph N9.0 kmh N 7.4 mph11.9 kmh 29.90 in1012.5 mb 0.00 in0.0 mm 0.00 in0.0 mm 0.13 in3.3 mm
08:15 AM 62.5°F16.9°C 56.3°F13.5°C 80% 4.5 mph N7.2 kmh N 7.4 mph11.9 kmh 29.90 in1012.5 mb 0.00 in0.0 mm 0.00 in0.0 mm 0.13 in3.3 mm
08:20 AM 62.9°F17.2°C 56.3°F13.5°C 79% 3.8 mph N6.1 kmh N 5.4 mph8.7 kmh 29.90 in1012.5 mb 0.00 in0.0 mm 0.00 in0.0 mm 0.13 in3.3 mm
08:25 AM 63.0°F17.2°C 56.1°F13.4°C 78% 3.7 mph NNW6.0 kmh NNW 5.7 mph9.2 kmh 29.90 in1012.5 mb 0.00 in0.0 mm 0.00 in0.0 mm 0.13 in3.3 mm
08:30 AM 63.8°F17.7°C 56.8°F13.8°C 78% 3.1 mph NW5.0 kmh NW 5.7 mph9.2 kmh 29.90 in1012.5 mb 0.00 in0.0 mm 0.00 in0.0 mm 0.13 in3.3 mm
08:35 AM 63.8°F17.7°C 56.8°F13.8°C 78% 2.7 mph NW4.3 kmh NW 4.2 mph6.8 kmh 29.90 in1012.5 mb 0.00 in0.0 mm 0.00 in0.0 mm 0.13 in3.3 mm
08:40 AM 64.8°F18.2°C 56.7°F13.7°C 75% 3.8 mph NW6.1 kmh NW 5.7 mph9.2 kmh 29.90 in1012.5 mb 0.00 in0.0 mm 0.00 in0.0 mm 0.13 in3.3 mm
08:45 AM 65.2°F18.4°C 56.3°F13.5°C 73% 4.1 mph NNW6.6 kmh NNW 5.7 mph9.2 kmh 29.90 in1012.5 mb 0.00 in0.0 mm 0.00 in0.0 mm 0.13 in3.3 mm
08:50 AM 65.6°F18.7°C 56.3°F13.5°C 72% 4.0 mph NNW6.4 kmh NNW 5.7 mph9.2 kmh 29.90 in1012.5 mb 0.00 in0.0 mm 0.00 in0.0 mm 0.13 in3.3 mm
08:55 AM 65.9°F18.8°C 56.3°F13.5°C 71% 4.2 mph NW6.8 kmh NW 6.5 mph10.5 kmh 29.90 in1012.5 mb 0.00 in0.0 mm 0.00 in0.0 mm 0.13 in3.3 mm
09:00 AM 66.3°F19.1°C 56.2°F13.4°C 70% 4.1 mph NW6.6 kmh NW 7.1 mph11.4 kmh 29.90 in1012.5 mb 0.00 in0.0 mm 0.00 in0.0 mm 0.13 in3.3 mm
09:05 AM 66.5°F19.2°C 56.4°F13.6°C 70% 4.0 mph NNW6.4 kmh NNW 7.1 mph11.4 kmh 29.90 in1012.5 mb 0.00 in0.0 mm 0.00 in0.0 mm 0.13 in3.3 mm
09:10 AM 66.7°F19.3°C 56.6°F13.7°C 70% 4.3 mph NNW6.9 kmh NNW 5.7 mph9.2 kmh 29.90 in1012.5 mb 0.00 in0.0 mm 0.00 in0.0 mm 0.13 in3.3 mm
09:15 AM 66.8°F19.3°C 56.3°F13.5°C 69% 4.2 mph NW6.8 kmh NW 5.1 mph8.2 kmh 29.90 in1012.5 mb 0.00 in0.0 mm 0.00 in0.0 mm 0.13 in3.3 mm
09:20 AM 67.0°F19.4°C 56.1°F13.4°C 68% 5.2 mph W8.4 kmh W 8.3 mph13.4 kmh 29.90 in1012.5 mb 0.00 in0.0 mm 0.00 in0.0 mm 0.13 in3.3 mm
09:25 AM 67.0°F19.4°C 55.7°F13.2°C 67% 4.9 mph WNW7.9 kmh WNW 8.3 mph13.4 kmh 29.90 in1012.5 mb 0.00 in0.0 mm 0.00 in0.0 mm 0.13 in3.3 mm
09:30 AM 67.2°F19.6°C 56.3°F13.5°C 68% 4.3 mph NW6.9 kmh NW 7.4 mph11.9 kmh 29.90 in1012.5 mb 0.00 in0.0 mm 0.00 in0.0 mm 0.13 in3.3 mm
09:35 AM 67.0°F19.4°C 55.3°F12.9°C 66% 5.2 mph W8.4 kmh W 7.4 mph11.9 kmh 29.90 in1012.5 mb 0.00 in0.0 mm 0.00 in0.0 mm 0.13 in3.3 mm
09:40 AM 66.8°F19.3°C 55.1°F12.8°C 66% 4.9 mph W7.9 kmh W 7.4 mph11.9 kmh 29.90 in1012.5 mb 0.00 in0.0 mm 0.00 in0.0 mm 0.13 in3.3 mm
09:45 AM 67.2°F19.6°C 55.4°F13.0°C 66% 5.4 mph W8.7 kmh W 8.3 mph13.4 kmh 29.90 in1012.5 mb 0.00 in0.0 mm 0.00 in0.0 mm 0.13 in3.3 mm
09:50 AM 67.4°F19.7°C 55.2°F12.9°C 65% 5.2 mph WSW8.4 kmh WSW 8.3 mph13.4 kmh 29.90 in1012.5 mb 0.00 in0.0 mm 0.00 in0.0 mm 0.13 in3.3 mm
09:55 AM 67.6°F19.8°C 55.4°F13.0°C 65% 4.3 mph WSW6.9 kmh WSW 7.4 mph11.9 kmh 29.90 in1012.5 mb 0.00 in0.0 mm 0.00 in0.0 mm 0.13 in3.3 mm
10:00 AM 67.6°F19.8°C 55.4°F13.0°C 65% 4.7 mph WSW7.6 kmh WSW 7.7 mph12.4 kmh 29.90 in1012.5 mb 0.00 in0.0 mm 0.00 in0.0 mm 0.13 in3.3 mm
10:05 AM 67.6°F19.8°C 55.4°F13.0°C 65% 4.6 mph W7.4 kmh W 7.7 mph12.4 kmh 29.90 in1012.5 mb 0.00 in0.0 mm 0.00 in0.0 mm 0.13 in3.3 mm
10:10 AM 67.7°F19.8°C 55.5°F13.1°C 65% 5.2 mph W8.4 kmh W 7.7 mph12.4 kmh 29.90 in1012.5 mb 0.00 in0.0 mm 0.00 in0.0 mm 0.13 in3.3 mm
10:15 AM 67.6°F19.8°C 55.4°F13.0°C 65% 5.3 mph WSW8.5 kmh WSW 8.0 mph12.9 kmh 29.90 in1012.5 mb 0.00 in0.0 mm 0.00 in0.0 mm 0.13 in3.3 mm
10:20 AM 67.4°F19.7°C 54.8°F12.7°C 64% 5.6 mph WSW9.0 kmh WSW 8.0 mph12.9 kmh 29.90 in1012.5 mb 0.00 in0.0 mm 0.00 in0.0 mm 0.13 in3.3 mm
10:25 AM 67.4°F19.7°C 54.8°F12.7°C 64% 5.6 mph W9.0 kmh W 8.6 mph13.8 kmh 29.90 in1012.5 mb 0.00 in0.0 mm 0.00 in0.0 mm 0.13 in3.3 mm
10:30 AM 67.4°F19.7°C 55.2°F12.9°C 65% 7.4 mph W11.9 kmh W 10.7 mph17.2 kmh 29.90 in1012.5 mb 0.00 in0.0 mm 0.00 in0.0 mm 0.13 in3.3 mm
10:35 AM 67.6°F19.8°C 55.4°F13.0°C 65% 7.9 mph W12.7 kmh W 10.7 mph17.2 kmh 29.90 in1012.5 mb 0.00 in0.0 mm 0.00 in0.0 mm 0.13 in3.3 mm
10:40 AM 67.6°F19.8°C 55.4°F13.0°C 65% 7.1 mph WSW11.4 kmh WSW 10.7 mph17.2 kmh 29.90 in1012.5 mb 0.00 in0.0 mm 0.00 in0.0 mm 0.13 in3.3 mm
10:45 AM 67.6°F19.8°C 55.8°F13.2°C 66% 6.6 mph SW10.6 kmh SW 10.7 mph17.2 kmh 29.90 in1012.5 mb 0.00 in0.0 mm 0.00 in0.0 mm 0.13 in3.3 mm
10:50 AM 67.9°F19.9°C 56.1°F13.4°C 66% 7.3 mph WSW11.7 kmh WSW 10.7 mph17.2 kmh 29.90 in1012.5 mb 0.00 in0.0 mm 0.00 in0.0 mm 0.13 in3.3 mm
10:55 AM 67.9°F19.9°C 56.1°F13.4°C 66% 7.6 mph W12.2 kmh W 10.7 mph17.2 kmh 29.90 in1012.5 mb 0.00 in0.0 mm 0.00 in0.0 mm 0.13 in3.3 mm
11:00 AM 67.7°F19.8°C 56.0°F13.3°C 66% 6.9 mph W11.1 kmh W 9.8 mph15.8 kmh 29.90 in1012.5 mb 0.00 in0.0 mm 0.00 in0.0 mm 0.13 in3.3 mm
11:05 AM 67.6°F19.8°C 55.8°F13.2°C 66% 7.4 mph WNW11.9 kmh WNW 9.8 mph15.8 kmh 29.90 in1012.5 mb 0.00 in0.0 mm 0.00 in0.0 mm 0.13 in3.3 mm
11:10 AM 67.4°F19.7°C 55.6°F13.1°C 66% 7.4 mph WNW11.9 kmh WNW 9.8 mph15.8 kmh 29.90 in1012.5 mb 0.00 in0.0 mm 0.00 in0.0 mm 0.13 in3.3 mm
11:15 AM 67.0°F19.4°C 55.3°F12.9°C 66% 7.5 mph W12.1 kmh W 14.0 mph22.5 kmh 29.90 in1012.5 mb 0.00 in0.0 mm 0.00 in0.0 mm 0.13 in3.3 mm
11:20 AM 67.0°F19.4°C 55.3°F12.9°C 66% 8.4 mph NW13.5 kmh NW 14.0 mph22.5 kmh 29.90 in1012.5 mb 0.00 in0.0 mm 0.00 in0.0 mm 0.13 in3.3 mm
11:25 AM 67.0°F19.4°C 55.3°F12.9°C 66% 9.5 mph W15.3 kmh W 14.3 mph23.0 kmh 29.90 in1012.5 mb 0.00 in0.0 mm 0.00 in0.0 mm 0.13 in3.3 mm
11:30 AM 66.8°F19.3°C 55.1°F12.8°C 66% 10.2 mph WSW16.4 kmh WSW 14.3 mph23.0 kmh 29.90 in1012.5 mb 0.00 in0.0 mm 0.00 in0.0 mm 0.13 in3.3 mm
11:35 AM 66.8°F19.3°C 55.1°F12.8°C 66% 9.4 mph WSW15.1 kmh WSW 14.3 mph23.0 kmh 29.90 in1012.5 mb 0.00 in0.0 mm 0.00 in0.0 mm 0.13 in3.3 mm
11:40 AM 67.0°F19.4°C 55.3°F12.9°C 66% 8.2 mph W13.2 kmh W 11.3 mph18.2 kmh 29.90 in1012.5 mb 0.00 in0.0 mm 0.00 in0.0 mm 0.13 in3.3 mm
11:45 AM 66.8°F19.3°C 55.5°F13.1°C 67% 8.3 mph W13.4 kmh W 14.6 mph23.5 kmh 29.90 in1012.5 mb 0.00 in0.0 mm 0.00 in0.0 mm 0.13 in3.3 mm
11:50 AM 66.8°F19.3°C 55.5°F13.1°C 67% 10.2 mph WSW16.4 kmh WSW 17.3 mph27.8 kmh 29.90 in1012.5 mb 0.00 in0.0 mm 0.00 in0.0 mm 0.13 in3.3 mm
11:55 AM 67.0°F19.4°C 55.7°F13.2°C 67% 12.2 mph WSW19.6 kmh WSW 17.3 mph27.8 kmh 29.90 in1012.5 mb 0.00 in0.0 mm 0.00 in0.0 mm 0.13 in3.3 mm
12:00 PM 66.8°F19.3°C 55.9°F13.3°C 68% 11.9 mph W19.2 kmh W 17.0 mph27.4 kmh 29.90 in1012.5 mb 0.00 in0.0 mm 0.00 in0.0 mm 0.13 in3.3 mm
12:05 PM 66.3°F19.1°C 55.4°F13.0°C 68% 12.3 mph W19.8 kmh W 19.3 mph31.1 kmh 29.90 in1012.5 mb 0.00 in0.0 mm 0.00 in0.0 mm 0.13 in3.3 mm
12:10 PM 66.3°F19.1°C 55.4°F13.0°C 68% 13.7 mph W22.0 kmh W 19.3 mph31.1 kmh 29.90 in1012.5 mb 0.00 in0.0 mm 0.00 in0.0 mm 0.13 in3.3 mm
12:15 PM 66.5°F19.2°C 55.6°F13.1°C 68% 14.7 mph WNW23.7 kmh WNW 23.5 mph37.8 kmh 29.90 in1012.5 mb 0.00 in0.0 mm 0.00 in0.0 mm 0.13 in3.3 mm
12:20 PM 66.5°F19.2°C 55.2°F12.9°C 67% 13.9 mph W22.4 kmh W 23.5 mph37.8 kmh 29.90 in1012.5 mb 0.00 in0.0 mm 0.00 in0.0 mm 0.13 in3.3 mm
12:25 PM 66.3°F19.1°C 55.0°F12.8°C 67% 13.2 mph W21.2 kmh W 23.5 mph37.8 kmh 29.90 in1012.5 mb 0.00 in0.0 mm 0.00 in0.0 mm 0.13 in3.3 mm
12:30 PM 66.1°F18.9°C 54.8°F12.7°C 67% 15.0 mph W24.1 kmh W 23.5 mph37.8 kmh 29.90 in1012.5 mb 0.00 in0.0 mm 0.00 in0.0 mm 0.13 in3.3 mm
12:35 PM 66.3°F19.1°C 54.6°F12.6°C 66% 15.3 mph W24.6 kmh W 22.9 mph36.9 kmh 29.90 in1012.5 mb 0.00 in0.0 mm 0.00 in0.0 mm 0.13 in3.3 mm
12:40 PM 66.3°F19.1°C 54.2°F12.3°C 65% 16.3 mph W26.2 kmh W 24.7 mph39.8 kmh 29.90 in1012.5 mb 0.00 in0.0 mm 0.00 in0.0 mm 0.13 in3.3 mm
12:45 PM 66.7°F19.3°C 54.5°F12.5°C 65% 14.9 mph WNW24.0 kmh WNW 24.7 mph39.8 kmh 29.90 in1012.5 mb 0.00 in0.0 mm 0.00 in0.0 mm 0.13 in3.3 mm
12:50 PM 66.8°F19.3°C 54.3°F12.4°C 64% 14.8 mph WNW23.8 kmh WNW 20.5 mph33.0 kmh 29.90 in1012.5 mb 0.00 in0.0 mm 0.00 in0.0 mm 0.13 in3.3 mm
12:55 PM 66.3°F19.1°C 54.2°F12.3°C 65% 16.7 mph WNW26.9 kmh WNW 21.1 mph34.0 kmh 29.90 in1012.5 mb 0.00 in0.0 mm 0.00 in0.0 mm 0.13 in3.3 mm
01:00 PM 66.5°F19.2°C 54.3°F12.4°C 65% 16.0 mph WNW25.7 kmh WNW 22.6 mph36.4 kmh 29.90 in1012.5 mb 0.00 in0.0 mm 0.00 in0.0 mm 0.13 in3.3 mm
01:05 PM 66.5°F19.2°C 53.9°F12.2°C 64% 16.4 mph WNW26.4 kmh WNW 23.2 mph37.3 kmh 29.90 in1012.5 mb 0.00 in0.0 mm 0.00 in0.0 mm 0.13 in3.3 mm
01:10 PM 66.3°F19.1°C 53.3°F11.8°C 63% 16.4 mph WNW26.4 kmh WNW 23.2 mph37.3 kmh 29.90 in1012.5 mb 0.00 in0.0 mm 0.00 in0.0 mm 0.13 in3.3 mm
01:15 PM 65.9°F18.8°C 52.5°F11.4°C 62% 13.7 mph NW22.0 kmh NW 17.9 mph28.8 kmh 29.90 in1012.5 mb 0.00 in0.0 mm 0.00 in0.0 mm 0.13 in3.3 mm
01:20 PM 65.6°F18.7°C 52.2°F11.2°C 62% 11.5 mph W18.5 kmh W 14.6 mph23.5 kmh 29.90 in1012.5 mb 0.00 in0.0 mm 0.00 in0.0 mm 0.13 in3.3 mm
01:25 PM 65.0°F18.3°C 51.2°F10.7°C 61% 13.2 mph WSW21.2 kmh WSW 23.2 mph37.3 kmh 29.90 in1012.5 mb 0.00 in0.0 mm 0.00 in0.0 mm 0.13 in3.3 mm
01:30 PM 64.7°F18.2°C 50.9°F10.5°C 61% 14.2 mph WSW22.9 kmh WSW 23.2 mph37.3 kmh 29.90 in1012.5 mb 0.00 in0.0 mm 0.00 in0.0 mm 0.13 in3.3 mm
01:35 PM 64.3°F17.9°C 51.4°F10.8°C 63% 12.6 mph W20.3 kmh W 23.2 mph37.3 kmh 29.90 in1012.5 mb 0.00 in0.0 mm 0.00 in0.0 mm 0.13 in3.3 mm
01:40 PM 63.6°F17.6°C 50.8°F10.4°C 63% 13.2 mph W21.2 kmh W 17.9 mph28.8 kmh 29.90 in1012.5 mb 0.00 in0.0 mm 0.00 in0.0 mm 0.13 in3.3 mm
01:45 PM 63.6°F17.6°C 50.8°F10.4°C 63% 12.3 mph W19.8 kmh W 17.9 mph28.8 kmh 29.90 in1012.5 mb 0.00 in0.0 mm 0.00 in0.0 mm 0.13 in3.3 mm
01:50 PM 63.6°F17.6°C 50.3°F10.2°C 62% 11.5 mph W18.5 kmh W 19.0 mph30.6 kmh 29.90 in1012.5 mb 0.00 in0.0 mm 0.00 in0.0 mm 0.13 in3.3 mm
01:55 PM 63.2°F17.3°C 50.0°F10.0°C 62% 14.2 mph W22.9 kmh W 22.6 mph36.4 kmh 29.90 in1012.5 mb 0.00 in0.0 mm 0.00 in0.0 mm 0.13 in3.3 mm
02:00 PM 63.0°F17.2°C 50.2°F10.1°C 63% 18.0 mph W29.0 kmh W 29.8 mph48.0 kmh 29.90 in1012.5 mb 0.00 in0.0 mm 0.00 in0.0 mm 0.13 in3.3 mm
02:05 PM 63.0°F17.2°C 50.2°F10.1°C 63% 17.9 mph WNW28.8 kmh WNW 29.8 mph48.0 kmh 29.90 in1012.5 mb 0.00 in0.0 mm 0.00 in0.0 mm 0.13 in3.3 mm
02:10 PM 63.2°F17.3°C 50.8°F10.4°C 64% 15.5 mph W24.9 kmh W 21.7 mph34.9 kmh 29.90 in1012.5 mb 0.00 in0.0 mm 0.00 in0.0 mm 0.13 in3.3 mm
02:15 PM 63.2°F17.3°C 50.8°F10.4°C 64% 13.2 mph W21.2 kmh W 21.7 mph34.9 kmh 29.90 in1012.5 mb 0.00 in0.0 mm 0.00 in0.0 mm 0.13 in3.3 mm
02:20 PM 63.2°F17.3°C 50.8°F10.4°C 64% 12.0 mph W19.3 kmh W 19.6 mph31.5 kmh 29.90 in1012.5 mb 0.00 in0.0 mm 0.00 in0.0 mm 0.13 in3.3 mm
02:25 PM 63.0°F17.2°C 51.1°F10.6°C 65% 13.5 mph W21.7 kmh W 19.6 mph31.5 kmh 29.90 in1012.5 mb 0.00 in0.0 mm 0.00 in0.0 mm 0.13 in3.3 mm
02:30 PM 62.9°F17.2°C 50.9°F10.5°C 65% 13.6 mph W21.9 kmh W 17.3 mph27.8 kmh 29.90 in1012.5 mb 0.00 in0.0 mm 0.00 in0.0 mm 0.13 in3.3 mm
02:35 PM 62.7°F17.1°C 51.2°F10.7°C 66% 13.0 mph W20.9 kmh W 17.3 mph27.8 kmh 29.90 in1012.5 mb 0.00 in0.0 mm 0.00 in0.0 mm 0.13 in3.3 mm
02:40 PM 62.7°F17.1°C 51.2°F10.7°C 66% 12.8 mph W20.6 kmh W 17.3 mph27.8 kmh 29.90 in1012.5 mb 0.00 in0.0 mm 0.00 in0.0 mm 0.13 in3.3 mm
02:45 PM 62.5°F16.9°C 51.0°F10.6°C 66% 12.1 mph W19.5 kmh W 17.3 mph27.8 kmh 29.90 in1012.5 mb 0.00 in0.0 mm 0.00 in0.0 mm 0.13 in3.3 mm
02:50 PM 62.2°F16.8°C 50.7°F10.4°C 66% 12.5 mph W20.1 kmh W 17.6 mph28.3 kmh 29.90 in1012.5 mb 0.00 in0.0 mm 0.00 in0.0 mm 0.13 in3.3 mm
02:55 PM 62.2°F16.8°C 50.7°F10.4°C 66% 11.5 mph W18.5 kmh W 17.6 mph28.3 kmh 29.90 in1012.5 mb 0.00 in0.0 mm 0.00 in0.0 mm 0.13 in3.3 mm
03:00 PM 62.0°F16.7°C 50.5°F10.3°C 66% 9.3 mph W15.0 kmh W 14.3 mph23.0 kmh 29.90 in1012.5 mb 0.00 in0.0 mm 0.00 in0.0 mm 0.13 in3.3 mm
03:05 PM 62.0°F16.7°C 50.9°F10.5°C 67% 10.6 mph WNW17.1 kmh WNW 18.4 mph29.6 kmh 29.90 in1012.5 mb 0.00 in0.0 mm 0.00 in0.0 mm 0.13 in3.3 mm
03:10 PM 61.8°F16.6°C 50.7°F10.4°C 67% 12.2 mph W19.6 kmh W 18.4 mph29.6 kmh 29.90 in1012.5 mb 0.00 in0.0 mm 0.00 in0.0 mm 0.13 in3.3 mm
03:15 PM 62.0°F16.7°C 50.9°F10.5°C 67% 10.2 mph W16.4 kmh W 16.7 mph26.9 kmh 29.90 in1012.5 mb 0.00 in0.0 mm 0.00 in0.0 mm 0.13 in3.3 mm
03:20 PM 62.0°F16.7°C 50.9°F10.5°C 67% 9.1 mph W14.6 kmh W 14.6 mph23.5 kmh 29.90 in1012.5 mb 0.00 in0.0 mm 0.00 in0.0 mm 0.13 in3.3 mm
03:25 PM 62.0°F16.7°C 50.9°F10.5°C 67% 11.9 mph W19.2 kmh W 17.3 mph27.8 kmh 29.90 in1012.5 mb 0.00 in0.0 mm 0.00 in0.0 mm 0.13 in3.3 mm
03:30 PM 62.2°F16.8°C 51.1°F10.6°C 67% 13.1 mph WNW21.1 kmh WNW 20.2 mph32.5 kmh 29.90 in1012.5 mb 0.00 in0.0 mm 0.00 in0.0 mm 0.13 in3.3 mm
03:35 PM 62.3°F16.8°C 51.6°F10.9°C 68% 11.7 mph WNW18.8 kmh WNW 20.2 mph32.5 kmh 29.90 in1012.5 mb 0.00 in0.0 mm 0.00 in0.0 mm 0.13 in3.3 mm
03:40 PM 62.9°F17.2°C 52.1°F11.2°C 68% 10.0 mph W16.1 kmh W 14.3 mph23.0 kmh 29.90 in1012.5 mb 0.00 in0.0 mm 0.00 in0.0 mm 0.13 in3.3 mm
03:45 PM 63.0°F17.2°C 52.3°F11.3°C 68% 11.6 mph W18.7 kmh W 14.9 mph24.0 kmh 29.90 in1012.5 mb 0.00 in0.0 mm 0.00 in0.0 mm 0.13 in3.3 mm
03:50 PM 63.0°F17.2°C 52.3°F11.3°C 68% 12.8 mph WNW20.6 kmh WNW 17.0 mph27.4 kmh 29.90 in1012.5 mb 0.00 in0.0 mm 0.00 in0.0 mm 0.13 in3.3 mm
03:55 PM 62.9°F17.2°C 52.1°F11.2°C 68% 13.0 mph WNW20.9 kmh WNW 17.0 mph27.4 kmh 29.90 in1012.5 mb 0.00 in0.0 mm 0.00 in0.0 mm 0.13 in3.3 mm
04:00 PM 62.7°F17.1°C 52.0°F11.1°C 68% 13.3 mph WNW21.4 kmh WNW 19.3 mph31.1 kmh 29.90 in1012.5 mb 0.00 in0.0 mm 0.00 in0.0 mm 0.13 in3.3 mm
04:05 PM 62.7°F17.1°C 52.0°F11.1°C 68% 12.6 mph W20.3 kmh W 19.3 mph31.1 kmh 29.90 in1012.5 mb 0.00 in0.0 mm 0.00 in0.0 mm 0.13 in3.3 mm
04:10 PM 62.5°F16.9°C 51.8°F11.0°C 68% 13.4 mph W21.6 kmh W 20.8 mph33.5 kmh 29.87 in1011.5 mb 0.00 in0.0 mm 0.00 in0.0 mm 0.13 in3.3 mm
04:15 PM 62.7°F17.1°C 52.4°F11.3°C 69% 13.9 mph W22.4 kmh W 20.8 mph33.5 kmh 29.87 in1011.5 mb 0.00 in0.0 mm 0.00 in0.0 mm 0.13 in3.3 mm
04:20 PM 62.5°F16.9°C 52.2°F11.2°C 69% 11.4 mph W18.3 kmh W 19.3 mph31.1 kmh 29.87 in1011.5 mb 0.00 in0.0 mm 0.00 in0.0 mm 0.13 in3.3 mm
04:25 PM 62.5°F16.9°C 52.2°F11.2°C 69% 11.6 mph W18.7 kmh W 17.6 mph28.3 kmh 29.87 in1011.5 mb 0.00 in0.0 mm 0.00 in0.0 mm 0.13 in3.3 mm
04:30 PM 62.5°F16.9°C 52.2°F11.2°C 69% 12.5 mph W20.1 kmh W 17.6 mph28.3 kmh 29.87 in1011.5 mb 0.00 in0.0 mm 0.00 in0.0 mm 0.13 in3.3 mm
04:35 PM 62.5°F16.9°C 52.2°F11.2°C 69% 12.2 mph W19.6 kmh W 16.1 mph25.9 kmh 29.87 in1011.5 mb 0.00 in0.0 mm 0.00 in0.0 mm 0.13 in3.3 mm
04:40 PM 62.5°F16.9°C 52.6°F11.4°C 70% 13.4 mph W21.6 kmh W 17.3 mph27.8 kmh 29.87 in1011.5 mb 0.00 in0.0 mm 0.00 in0.0 mm 0.13 in3.3 mm
04:45 PM 62.3°F16.8°C 52.4°F11.3°C 70% 14.6 mph W23.5 kmh W 19.6 mph31.5 kmh 29.87 in1011.5 mb 0.00 in0.0 mm 0.00 in0.0 mm 0.13 in3.3 mm
04:50 PM 62.3°F16.8°C 52.4°F11.3°C 70% 14.8 mph W23.8 kmh W 19.6 mph31.5 kmh 29.87 in1011.5 mb 0.00 in0.0 mm 0.00 in0.0 mm 0.13 in3.3 mm
04:55 PM 62.0°F16.7°C 52.5°F11.4°C 71% 13.4 mph W21.6 kmh W 18.4 mph29.6 kmh 29.87 in1011.5 mb 0.00 in0.0 mm 0.00 in0.0 mm 0.13 in3.3 mm
05:00 PM 62.0°F16.7°C 52.5°F11.4°C 71% 14.2 mph WSW22.9 kmh WSW 21.7 mph34.9 kmh 29.87 in1011.5 mb 0.00 in0.0 mm 0.00 in0.0 mm 0.13 in3.3 mm
05:05 PM 61.8°F16.6°C 52.3°F11.3°C 71% 13.8 mph W22.2 kmh W 21.7 mph34.9 kmh 29.87 in1011.5 mb 0.00 in0.0 mm 0.00 in0.0 mm 0.13 in3.3 mm
05:10 PM 62.0°F16.7°C 52.5°F11.4°C 71% 12.5 mph W20.1 kmh W 16.1 mph25.9 kmh 29.87 in1011.5 mb 0.00 in0.0 mm 0.00 in0.0 mm 0.13 in3.3 mm
05:15 PM 62.0°F16.7°C 52.5°F11.4°C 71% 12.0 mph W19.3 kmh W 16.7 mph26.9 kmh 29.87 in1011.5 mb 0.00 in0.0 mm 0.00 in0.0 mm 0.13 in3.3 mm
05:20 PM 62.0°F16.7°C 52.5°F11.4°C 71% 12.8 mph W20.6 kmh W 17.0 mph27.4 kmh 29.87 in1011.5 mb 0.00 in0.0 mm 0.00 in0.0 mm 0.13 in3.3 mm
05:25 PM 62.0°F16.7°C 52.8°F11.6°C 72% 11.4 mph W18.3 kmh W 17.9 mph28.8 kmh 29.87 in1011.5 mb 0.00 in0.0 mm 0.00 in0.0 mm 0.13 in3.3 mm
05:30 PM 61.6°F16.4°C 52.9°F11.6°C 73% 14.0 mph W22.5 kmh W 28.0 mph45.1 kmh 29.87 in1011.5 mb 0.00 in0.0 mm 0.00 in0.0 mm 0.13 in3.3 mm
05:35 PM 61.3°F16.3°C 53.3°F11.8°C 75% 15.7 mph WSW25.3 kmh WSW 28.0 mph45.1 kmh 29.87 in1011.5 mb 0.00 in0.0 mm 0.00 in0.0 mm 0.13 in3.3 mm
05:40 PM 61.1°F16.2°C 53.1°F11.7°C 75% 13.5 mph W21.7 kmh W 20.5 mph33.0 kmh 29.87 in1011.5 mb 0.00 in0.0 mm 0.00 in0.0 mm 0.13 in3.3 mm
05:45 PM 61.1°F16.2°C 52.7°F11.5°C 74% 12.7 mph W20.4 kmh W 17.3 mph27.8 kmh 29.87 in1011.5 mb 0.00 in0.0 mm 0.00 in0.0 mm 0.13 in3.3 mm
05:50 PM 60.9°F16.1°C 52.5°F11.4°C 74% 11.6 mph W18.7 kmh W 17.3 mph27.8 kmh 29.87 in1011.5 mb 0.00 in0.0 mm 0.00 in0.0 mm 0.13 in3.3 mm
05:55 PM 60.9°F16.1°C 52.5°F11.4°C 74% 10.2 mph WNW16.4 kmh WNW 17.6 mph28.3 kmh 29.87 in1011.5 mb 0.00 in0.0 mm 0.00 in0.0 mm 0.13 in3.3 mm
06:00 PM 60.7°F15.9°C 52.4°F11.3°C 74% 9.3 mph NW15.0 kmh NW 17.6 mph28.3 kmh 29.87 in1011.5 mb 0.00 in0.0 mm 0.00 in0.0 mm 0.13 in3.3 mm
06:05 PM 60.7°F15.9°C 52.0°F11.1°C 73% 9.9 mph WNW15.9 kmh WNW 16.7 mph26.9 kmh 29.87 in1011.5 mb 0.00 in0.0 mm 0.00 in0.0 mm 0.13 in3.3 mm
06:10 PM 60.7°F15.9°C 52.0°F11.1°C 73% 11.2 mph WNW18.0 kmh WNW 16.7 mph26.9 kmh 29.87 in1011.5 mb 0.00 in0.0 mm 0.00 in0.0 mm 0.13 in3.3 mm
06:15 PM 60.5°F15.8°C 51.8°F11.0°C 73% 10.6 mph WNW17.1 kmh WNW 13.7 mph22.0 kmh 29.87 in1011.5 mb 0.00 in0.0 mm 0.00 in0.0 mm 0.13 in3.3 mm
06:20 PM 60.5°F15.8°C 51.8°F11.0°C 73% 10.3 mph WNW16.6 kmh WNW 13.7 mph22.0 kmh 29.87 in1011.5 mb 0.00 in0.0 mm 0.00 in0.0 mm 0.13 in3.3 mm
06:25 PM 60.5°F15.8°C 51.5°F10.8°C 72% 9.8 mph WNW15.8 kmh WNW 13.7 mph22.0 kmh 29.87 in1011.5 mb 0.00 in0.0 mm 0.00 in0.0 mm 0.13 in3.3 mm
06:30 PM 60.3°F15.7°C 51.3°F10.7°C 72% 9.7 mph WNW15.6 kmh WNW 14.6 mph23.5 kmh 29.87 in1011.5 mb 0.00 in0.0 mm 0.00 in0.0 mm 0.13 in3.3 mm
06:35 PM 60.2°F15.7°C 51.1°F10.6°C 72% 8.6 mph WNW13.8 kmh WNW 14.6 mph23.5 kmh 29.87 in1011.5 mb 0.00 in0.0 mm 0.00 in0.0 mm 0.13 in3.3 mm
06:40 PM 60.2°F15.7°C 51.1°F10.6°C 72% 10.3 mph WNW16.6 kmh WNW 20.2 mph32.5 kmh 29.87 in1011.5 mb 0.00 in0.0 mm 0.00 in0.0 mm 0.13 in3.3 mm
06:45 PM 60.0°F15.6°C 50.6°F10.3°C 71% 11.3 mph WNW18.2 kmh WNW 20.2 mph32.5 kmh 29.87 in1011.5 mb 0.00 in0.0 mm 0.00 in0.0 mm 0.13 in3.3 mm
06:50 PM 60.0°F15.6°C 50.6°F10.3°C 71% 12.0 mph NW19.3 kmh NW 18.4 mph29.6 kmh 29.87 in1011.5 mb 0.00 in0.0 mm 0.00 in0.0 mm 0.13 in3.3 mm
06:55 PM 59.8°F15.4°C 50.4°F10.2°C 71% 11.0 mph NW17.7 kmh NW 18.4 mph29.6 kmh 29.90 in1012.5 mb 0.00 in0.0 mm 0.00 in0.0 mm 0.13 in3.3 mm
07:00 PM 59.8°F15.4°C 50.4°F10.2°C 71% 9.2 mph NW14.8 kmh NW 14.6 mph23.5 kmh 29.90 in1012.5 mb 0.00 in0.0 mm 0.00 in0.0 mm 0.13 in3.3 mm
07:05 PM 59.5°F15.3°C 50.0°F10.0°C 71% 10.0 mph NW16.1 kmh NW 14.6 mph23.5 kmh 29.90 in1012.5 mb 0.00 in0.0 mm 0.00 in0.0 mm 0.13 in3.3 mm
07:10 PM 59.3°F15.2°C 49.5°F9.7°C 70% 12.1 mph NW19.5 kmh NW 20.2 mph32.5 kmh 29.90 in1012.5 mb 0.00 in0.0 mm 0.00 in0.0 mm 0.13 in3.3 mm
07:15 PM 59.1°F15.1°C 48.9°F9.4°C 69% 12.1 mph W19.5 kmh W 20.2 mph32.5 kmh 29.90 in1012.5 mb 0.00 in0.0 mm 0.00 in0.0 mm 0.13 in3.3 mm
07:20 PM 59.1°F15.1°C 48.9°F9.4°C 69% 8.9 mph W14.3 kmh W 14.0 mph22.5 kmh 29.90 in1012.5 mb 0.00 in0.0 mm 0.00 in0.0 mm 0.13 in3.3 mm
07:25 PM 58.7°F14.8°C 48.2°F9.0°C 68% 7.5 mph NW12.1 kmh NW 13.7 mph22.0 kmh 29.90 in1012.5 mb 0.00 in0.0 mm 0.00 in0.0 mm 0.13 in3.3 mm
07:30 PM 58.5°F14.7°C 48.0°F8.9°C 68% 6.6 mph NW10.6 kmh NW 11.9 mph19.2 kmh 29.90 in1012.5 mb 0.00 in0.0 mm 0.00 in0.0 mm 0.13 in3.3 mm
07:35 PM 58.4°F14.7°C 47.8°F8.8°C 68% 7.1 mph NW11.4 kmh NW 11.9 mph19.2 kmh 29.90 in1012.5 mb 0.00 in0.0 mm 0.00 in0.0 mm 0.13 in3.3 mm
07:40 PM 58.2°F14.6°C 47.7°F8.7°C 68% 7.1 mph NW11.4 kmh NW 12.5 mph20.1 kmh 29.90 in1012.5 mb 0.00 in0.0 mm 0.00 in0.0 mm 0.13 in3.3 mm
07:45 PM 58.0°F14.4°C 47.5°F8.6°C 68% 8.4 mph NW13.5 kmh NW 14.0 mph22.5 kmh 29.90 in1012.5 mb 0.00 in0.0 mm 0.00 in0.0 mm 0.13 in3.3 mm
07:50 PM 58.0°F14.4°C 47.5°F8.6°C 68% 8.1 mph NW13.0 kmh NW 14.0 mph22.5 kmh 29.90 in1012.5 mb 0.00 in0.0 mm 0.00 in0.0 mm 0.13 in3.3 mm
07:55 PM 57.8°F14.3°C 47.3°F8.5°C 68% 7.0 mph WNW11.3 kmh WNW 10.4 mph16.7 kmh 29.90 in1012.5 mb 0.00 in0.0 mm 0.00 in0.0 mm 0.13 in3.3 mm
08:00 PM 57.8°F14.3°C 47.3°F8.5°C 68% 7.0 mph WNW11.3 kmh WNW 10.1 mph16.3 kmh 29.90 in1012.5 mb 0.00 in0.0 mm 0.00 in0.0 mm 0.13 in3.3 mm
08:05 PM 57.7°F14.3°C 47.2°F8.4°C 68% 6.7 mph NW10.8 kmh NW 10.1 mph16.3 kmh 29.90 in1012.5 mb 0.00 in0.0 mm 0.00 in0.0 mm 0.13 in3.3 mm
08:10 PM 57.7°F14.3°C 47.2°F8.4°C 68% 7.7 mph WNW12.4 kmh WNW 10.7 mph17.2 kmh 29.90 in1012.5 mb 0.00 in0.0 mm 0.00 in0.0 mm 0.13 in3.3 mm
08:15 PM 57.5°F14.2°C 47.0°F8.3°C 68% 7.4 mph WNW11.9 kmh WNW 10.7 mph17.2 kmh 29.90 in1012.5 mb 0.00 in0.0 mm 0.00 in0.0 mm 0.13 in3.3 mm
08:20 PM 57.5°F14.2°C 47.0°F8.3°C 68% 5.5 mph WNW8.9 kmh WNW 8.6 mph13.8 kmh 29.90 in1012.5 mb 0.00 in0.0 mm 0.00 in0.0 mm 0.13 in3.3 mm
08:25 PM 57.3°F14.1°C 46.8°F8.2°C 68% 5.9 mph NW9.5 kmh NW 9.8 mph15.8 kmh 29.90 in1012.5 mb 0.00 in0.0 mm 0.00 in0.0 mm 0.13 in3.3 mm
08:30 PM 57.3°F14.1°C 46.8°F8.2°C 68% 6.1 mph NW9.8 kmh NW 9.8 mph15.8 kmh 29.90 in1012.5 mb 0.00 in0.0 mm 0.00 in0.0 mm 0.13 in3.3 mm
08:35 PM 57.1°F13.9°C 47.0°F8.3°C 69% 4.9 mph WNW7.9 kmh WNW 7.4 mph11.9 kmh 29.90 in1012.5 mb 0.00 in0.0 mm 0.00 in0.0 mm 0.13 in3.3 mm
08:40 PM 57.1°F13.9°C 46.6°F8.1°C 68% 7.1 mph WNW11.4 kmh WNW 10.7 mph17.2 kmh 29.90 in1012.5 mb 0.00 in0.0 mm 0.00 in0.0 mm 0.13 in3.3 mm
08:45 PM 57.1°F13.9°C 46.6°F8.1°C 68% 7.2 mph WNW11.6 kmh WNW 10.7 mph17.2 kmh 29.90 in1012.5 mb 0.00 in0.0 mm 0.00 in0.0 mm 0.13 in3.3 mm
08:50 PM 56.9°F13.8°C 46.5°F8.1°C 68% 7.6 mph WNW12.2 kmh WNW 11.9 mph19.2 kmh 29.90 in1012.5 mb 0.00 in0.0 mm 0.00 in0.0 mm 0.13 in3.3 mm
08:55 PM 56.9°F13.8°C 46.5°F8.1°C 68% 6.4 mph WNW10.3 kmh WNW 11.9 mph19.2 kmh 29.90 in1012.5 mb 0.00 in0.0 mm 0.00 in0.0 mm 0.13 in3.3 mm
09:00 PM 56.9°F13.8°C 46.5°F8.1°C 68% 7.0 mph WNW11.3 kmh WNW 10.4 mph16.7 kmh 29.90 in1012.5 mb 0.00 in0.0 mm 0.00 in0.0 mm 0.13 in3.3 mm
09:05 PM 56.9°F13.8°C 46.5°F8.1°C 68% 8.3 mph WNW13.4 kmh WNW 10.4 mph16.7 kmh 29.90 in1012.5 mb 0.00 in0.0 mm 0.00 in0.0 mm 0.13 in3.3 mm
09:10 PM 56.9°F13.8°C 46.1°F7.8°C 67% 6.6 mph W10.6 kmh W 10.4 mph16.7 kmh 29.90 in1012.5 mb 0.00 in0.0 mm 0.00 in0.0 mm 0.13 in3.3 mm
09:15 PM 56.9°F13.8°C 46.1°F7.8°C 67% 7.2 mph W11.6 kmh W 11.3 mph18.2 kmh 29.90 in1012.5 mb 0.00 in0.0 mm 0.00 in0.0 mm 0.13 in3.3 mm
09:20 PM 56.8°F13.8°C 45.9°F7.7°C 67% 6.9 mph WNW11.1 kmh WNW 11.3 mph18.2 kmh 29.90 in1012.5 mb 0.00 in0.0 mm 0.00 in0.0 mm 0.13 in3.3 mm
09:25 PM 56.8°F13.8°C 45.9°F7.7°C 67% 6.9 mph WNW11.1 kmh WNW 12.8 mph20.6 kmh 29.90 in1012.5 mb 0.00 in0.0 mm 0.00 in0.0 mm 0.13 in3.3 mm
09:30 PM 56.6°F13.7°C 45.3°F7.4°C 66% 6.4 mph WNW10.3 kmh WNW 12.8 mph20.6 kmh 29.90 in1012.5 mb 0.00 in0.0 mm 0.00 in0.0 mm 0.13 in3.3 mm
09:35 PM 56.6°F13.7°C 45.7°F7.6°C 67% 5.9 mph NW9.5 kmh NW 8.0 mph12.9 kmh 29.90 in1012.5 mb 0.00 in0.0 mm 0.00 in0.0 mm 0.13 in3.3 mm
09:40 PM 56.6°F13.7°C 45.3°F7.4°C 66% 7.1 mph NW11.4 kmh NW 9.8 mph15.8 kmh 29.93 in1013.5 mb 0.00 in0.0 mm 0.00 in0.0 mm 0.13 in3.3 mm
09:45 PM 56.6°F13.7°C 45.3°F7.4°C 66% 7.1 mph NW11.4 kmh NW 9.8 mph15.8 kmh 29.93 in1013.5 mb 0.00 in0.0 mm 0.00 in0.0 mm 0.13 in3.3 mm
09:50 PM 56.6°F13.7°C 45.3°F7.4°C 66% 7.4 mph NW11.9 kmh NW 9.8 mph15.8 kmh 29.93 in1013.5 mb 0.00 in0.0 mm 0.00 in0.0 mm 0.13 in3.3 mm
09:55 PM 56.4°F13.6°C 45.2°F7.3°C 66% 6.9 mph NW11.1 kmh NW 8.3 mph13.4 kmh 29.90 in1012.5 mb 0.00 in0.0 mm 0.00 in0.0 mm 0.13 in3.3 mm
10:00 PM 56.4°F13.6°C 45.2°F7.3°C 66% 6.2 mph W10.0 kmh W 8.0 mph12.9 kmh 29.90 in1012.5 mb 0.00 in0.0 mm 0.00 in0.0 mm 0.13 in3.3 mm
10:05 PM 56.2°F13.4°C 45.0°F7.2°C 66% 6.5 mph WNW10.5 kmh WNW 10.7 mph17.2 kmh 29.90 in1012.5 mb 0.00 in0.0 mm 0.00 in0.0 mm 0.13 in3.3 mm
10:10 PM 56.2°F13.4°C 45.0°F7.2°C 66% 6.5 mph NW10.5 kmh NW 10.7 mph17.2 kmh 29.90 in1012.5 mb 0.00 in0.0 mm 0.00 in0.0 mm 0.13 in3.3 mm
10:15 PM 56.2°F13.4°C 45.0°F7.2°C 66% 6.7 mph WNW10.8 kmh WNW 11.6 mph18.7 kmh 29.90 in1012.5 mb 0.00 in0.0 mm 0.00 in0.0 mm 0.13 in3.3 mm
10:20 PM 56.0°F13.3°C 44.8°F7.1°C 66% 7.5 mph W12.1 kmh W 11.6 mph18.7 kmh 29.90 in1012.5 mb 0.00 in0.0 mm 0.00 in0.0 mm 0.13 in3.3 mm
10:25 PM 56.0°F13.3°C 44.8°F7.1°C 66% 7.5 mph WNW12.1 kmh WNW 11.6 mph18.7 kmh 29.93 in1013.5 mb 0.00 in0.0 mm 0.00 in0.0 mm 0.13 in3.3 mm
10:30 PM 56.0°F13.3°C 44.8°F7.1°C 66% 6.4 mph NW10.3 kmh NW 10.4 mph16.7 kmh 29.93 in1013.5 mb 0.00 in0.0 mm 0.00 in0.0 mm 0.13 in3.3 mm
10:35 PM 56.0°F13.3°C 44.8°F7.1°C 66% 7.5 mph WNW12.1 kmh WNW 10.4 mph16.7 kmh 29.93 in1013.5 mb 0.00 in0.0 mm 0.00 in0.0 mm 0.13 in3.3 mm
10:40 PM 56.0°F13.3°C 44.8°F7.1°C 66% 8.4 mph W13.5 kmh W 10.4 mph16.7 kmh 29.90 in1012.5 mb 0.00 in0.0 mm 0.00 in0.0 mm 0.13 in3.3 mm
10:45 PM 56.2°F13.4°C 45.0°F7.2°C 66% 7.2 mph W11.6 kmh W 10.4 mph16.7 kmh 29.90 in1012.5 mb 0.00 in0.0 mm 0.00 in0.0 mm 0.13 in3.3 mm
10:50 PM 56.2°F13.4°C 45.0°F7.2°C 66% 6.8 mph WNW10.9 kmh WNW 15.2 mph24.5 kmh 29.90 in1012.5 mb 0.00 in0.0 mm 0.00 in0.0 mm 0.13 in3.3 mm
10:55 PM 56.0°F13.3°C 44.8°F7.1°C 66% 7.7 mph WNW12.4 kmh WNW 15.2 mph24.5 kmh 29.90 in1012.5 mb 0.00 in0.0 mm 0.00 in0.0 mm 0.13 in3.3 mm
11:00 PM 56.0°F13.3°C 44.8°F7.1°C 66% 7.4 mph WNW11.9 kmh WNW 10.7 mph17.2 kmh 29.90 in1012.5 mb 0.00 in0.0 mm 0.00 in0.0 mm 0.13 in3.3 mm
11:05 PM 56.0°F13.3°C 44.8°F7.1°C 66% 9.0 mph NW14.5 kmh NW 14.3 mph23.0 kmh 29.90 in1012.5 mb 0.00 in0.0 mm 0.00 in0.0 mm 0.13 in3.3 mm
11:10 PM 56.0°F13.3°C 44.8°F7.1°C 66% 9.2 mph WNW14.8 kmh WNW 14.3 mph23.0 kmh 29.93 in1013.5 mb 0.00 in0.0 mm 0.00 in0.0 mm 0.13 in3.3 mm
11:15 PM 56.0°F13.3°C 44.8°F7.1°C 66% 7.9 mph WNW12.7 kmh WNW 9.8 mph15.8 kmh 29.93 in1013.5 mb 0.00 in0.0 mm 0.00 in0.0 mm 0.13 in3.3 mm
11:20 PM 56.0°F13.3°C 44.8°F7.1°C 66% 8.0 mph WNW12.9 kmh WNW 13.1 mph21.1 kmh 29.93 in1013.5 mb 0.00 in0.0 mm 0.00 in0.0 mm 0.13 in3.3 mm
11:25 PM 56.0°F13.3°C 44.8°F7.1°C 66% 8.4 mph WNW13.5 kmh WNW 14.6 mph23.5 kmh 29.93 in1013.5 mb 0.00 in0.0 mm 0.00 in0.0 mm 0.13 in3.3 mm
11:30 PM 56.0°F13.3°C 44.8°F7.1°C 66% 8.8 mph W14.2 kmh W 14.6 mph23.5 kmh 29.93 in1013.5 mb 0.00 in0.0 mm 0.00 in0.0 mm 0.13 in3.3 mm
11:35 PM 56.0°F13.3°C 44.8°F7.1°C 66% 8.8 mph WNW14.2 kmh WNW 11.6 mph18.7 kmh 29.93 in1013.5 mb 0.00 in0.0 mm 0.00 in0.0 mm 0.13 in3.3 mm
11:40 PM 55.8°F13.2°C 45.0°F7.2°C 67% 8.8 mph NW14.2 kmh NW 17.0 mph27.4 kmh 29.93 in1013.5 mb 0.00 in0.0 mm 0.00 in0.0 mm 0.13 in3.3 mm
11:45 PM 55.7°F13.2°C 44.9°F7.2°C 67% 8.1 mph WNW13.0 kmh WNW 17.0 mph27.4 kmh 29.93 in1013.5 mb 0.00 in0.0 mm 0.00 in0.0 mm 0.13 in3.3 mm
11:50 PM 55.7°F13.2°C 44.9°F7.2°C 67% 7.4 mph WNW11.9 kmh WNW 14.3 mph23.0 kmh 29.93 in1013.5 mb 0.00 in0.0 mm 0.00 in0.0 mm 0.13 in3.3 mm
11:55 PM 55.5°F13.1°C 45.1°F7.3°C 68% 7.5 mph WNW12.1 kmh WNW 14.3 mph23.0 kmh 29.93 in1013.5 mb 0.00 in0.0 mm 0.00 in0.0 mm 0.13 in3.3 mm